createdAt,value
2019-05-26T00:01:44.985Z,10.90
2019-05-26T00:04:15.810Z,10.90
2019-05-26T00:06:46.575Z,10.90
2019-05-26T00:09:17.384Z,10.90
2019-05-26T00:11:48.098Z,10.90
2019-05-26T00:14:18.835Z,10.80
2019-05-26T00:16:49.610Z,10.80
2019-05-26T00:19:20.427Z,10.80
2019-05-26T00:21:51.123Z,10.80
2019-05-26T00:24:21.903Z,10.70
2019-05-26T00:26:52.697Z,10.70
2019-05-26T00:29:23.474Z,10.70
2019-05-26T00:31:54.280Z,10.60
2019-05-26T00:34:25.046Z,10.60
2019-05-26T00:36:55.828Z,10.70
2019-05-26T00:39:26.598Z,10.70
2019-05-26T00:41:57.385Z,10.60
2019-05-26T00:44:28.131Z,10.60
2019-05-26T00:46:58.906Z,10.60
2019-05-26T00:49:29.574Z,10.60
2019-05-26T00:52:00.418Z,10.60
2019-05-26T00:54:31.097Z,10.50
2019-05-26T00:57:02.015Z,10.50
2019-05-26T00:59:32.730Z,10.50
2019-05-26T01:02:03.666Z,10.40
2019-05-26T01:04:34.413Z,10.50
2019-05-26T01:07:05.209Z,10.50
2019-05-26T01:09:35.877Z,10.50
2019-05-26T01:12:06.643Z,10.50
2019-05-26T01:14:37.476Z,10.60
2019-05-26T01:17:08.195Z,10.60
2019-05-26T01:19:38.902Z,10.50
2019-05-26T01:22:09.718Z,10.50
2019-05-26T01:24:40.505Z,10.50
2019-05-26T01:27:11.302Z,10.50
2019-05-26T01:29:42.078Z,10.40
2019-05-26T01:32:12.904Z,10.40
2019-05-26T01:34:43.681Z,10.30
2019-05-26T01:37:14.587Z,10.30
2019-05-26T01:39:45.364Z,10.30
2019-05-26T01:42:16.121Z,10.30
2019-05-26T01:44:46.866Z,10.30
2019-05-26T01:47:17.643Z,10.30
2019-05-26T01:49:48.450Z,10.30
2019-05-26T01:52:19.268Z,10.30
2019-05-26T01:54:50.044Z,10.30
2019-05-26T01:57:20.911Z,10.30
2019-05-26T01:59:51.578Z,10.20
2019-05-26T02:02:22.372Z,10.20
2019-05-26T02:04:53.099Z,10.20
2019-05-26T02:07:23.915Z,10.20
2019-05-26T02:09:54.652Z,10.20
2019-05-26T02:12:25.448Z,10.20
2019-05-26T02:14:56.233Z,10.20
2019-05-26T02:17:27.016Z,10.30
2019-05-26T02:19:57.757Z,10.20
2019-05-26T02:22:28.994Z,10.30
2019-05-26T02:24:59.739Z,10.30
2019-05-26T02:27:30.507Z,10.30
2019-05-26T02:30:01.283Z,10.30
2019-05-26T02:32:32.080Z,10.30
2019-05-26T02:35:02.936Z,10.30
2019-05-26T02:37:33.693Z,10.30
2019-05-26T02:40:05.361Z,10.30
2019-05-26T02:42:36.106Z,10.20
2019-05-26T02:45:07.803Z,10.20
2019-05-26T02:47:38.546Z,10.20
2019-05-26T02:50:09.756Z,10.20
2019-05-26T02:52:40.475Z,10.10
2019-05-26T02:55:11.801Z,10.10
2019-05-26T02:57:42.578Z,10.00
2019-05-26T03:00:14.023Z,10.00
2019-05-26T03:02:45.289Z,10.00
2019-05-26T03:05:16.325Z,10.00
2019-05-26T03:07:47.371Z,10.00
2019-05-26T03:10:18.268Z,9.90
2019-05-26T03:12:50.732Z,9.90
2019-05-26T03:15:21.503Z,9.90
2019-05-26T03:17:54.413Z,9.90
2019-05-26T03:20:25.178Z,9.90
2019-05-26T03:22:57.910Z,9.90
2019-05-26T03:25:30.885Z,9.90
2019-05-26T03:28:01.594Z,9.80
2019-05-26T03:30:32.425Z,9.80
2019-05-26T03:33:03.147Z,9.80
2019-05-26T03:35:33.904Z,9.80
2019-05-26T03:38:04.648Z,9.70
2019-05-26T03:40:35.385Z,9.70
2019-05-26T03:43:06.119Z,9.80
2019-05-26T03:46:16.685Z,9.80
2019-05-26T03:48:47.395Z,9.80
2019-05-26T03:51:18.157Z,9.90
2019-05-26T03:53:48.840Z,9.90
2019-05-26T03:56:19.631Z,9.90
2019-05-26T03:58:50.407Z,9.90
2019-05-26T04:01:21.148Z,9.90
2019-05-26T04:03:51.891Z,9.90
2019-05-26T04:06:22.730Z,9.90
2019-05-26T04:08:53.497Z,10.00
2019-05-26T04:11:24.306Z,10.00
2019-05-26T04:13:55.030Z,10.00
2019-05-26T04:16:25.807Z,10.10
2019-05-26T04:18:56.562Z,10.10
2019-05-26T04:21:27.349Z,10.10
2019-05-26T04:23:58.084Z,10.20
2019-05-26T04:26:28.882Z,10.20
2019-05-26T04:28:59.661Z,10.30
2019-05-26T04:31:30.465Z,10.30
2019-05-26T04:34:01.210Z,10.40
2019-05-26T04:36:31.999Z,10.40
2019-05-26T04:39:02.838Z,10.50
2019-05-26T04:41:33.630Z,10.60
2019-05-26T04:44:04.509Z,10.60
2019-05-26T04:46:35.282Z,10.60
2019-05-26T04:49:06.056Z,10.60
2019-05-26T04:51:36.786Z,10.60
2019-05-26T04:54:07.545Z,10.70
2019-05-26T04:56:38.368Z,10.70
2019-05-26T04:59:09.132Z,10.80
2019-05-26T05:01:39.882Z,10.90
2019-05-26T05:04:10.628Z,11.00
2019-05-26T05:06:44.536Z,11.10
2019-05-26T05:09:15.292Z,11.10
2019-05-26T05:11:46.057Z,11.20
2019-05-26T05:14:16.856Z,11.20
2019-05-26T05:16:47.641Z,11.40
2019-05-26T05:19:18.467Z,11.50
2019-05-26T05:21:49.214Z,11.60
2019-05-26T05:24:20.021Z,11.70
2019-05-26T05:26:50.746Z,11.90
2019-05-26T05:29:21.515Z,12.00
2019-05-26T05:31:52.240Z,12.10
2019-05-26T05:34:23.028Z,12.20
2019-05-26T05:36:53.802Z,12.40
2019-05-26T05:39:24.609Z,12.70
2019-05-26T05:41:55.347Z,13.10
2019-05-26T05:44:26.253Z,13.50
2019-05-26T05:46:56.982Z,13.90
2019-05-26T05:49:27.766Z,14.10
2019-05-26T05:51:58.717Z,14.30
2019-05-26T05:54:29.528Z,14.40
2019-05-26T05:57:00.302Z,14.40
2019-05-26T05:59:31.073Z,14.40
2019-05-26T06:02:01.911Z,14.50
2019-05-26T06:04:32.675Z,14.60
2019-05-26T06:07:03.450Z,14.60
2019-05-26T06:09:34.227Z,14.80
2019-05-26T06:12:05.005Z,15.00
2019-05-26T06:14:35.791Z,15.00
2019-05-26T06:17:10.313Z,15.00
2019-05-26T06:19:38.923Z,15.00
2019-05-26T06:22:09.674Z,15.00
2019-05-26T06:24:40.496Z,15.00
2019-05-26T06:27:11.245Z,15.00
2019-05-26T06:29:57.615Z,15.10
2019-05-26T06:32:14.784Z,15.20
2019-05-26T06:34:45.894Z,15.40
2019-05-26T06:37:16.683Z,15.40
2019-05-26T06:39:47.426Z,15.60
2019-05-26T06:42:18.212Z,15.70
2019-05-26T06:44:53.717Z,15.90
2019-05-26T06:47:21.378Z,16.00
2019-05-26T06:49:52.134Z,16.20
2019-05-26T06:52:22.891Z,16.40
2019-05-26T06:54:53.666Z,16.50
2019-05-26T06:57:24.454Z,16.60
2019-05-26T06:59:55.219Z,16.50
2019-05-26T07:02:26.026Z,16.50
2019-05-26T07:04:56.782Z,16.50
2019-05-26T07:07:27.618Z,16.70
2019-05-26T07:09:58.377Z,16.80
2019-05-26T07:12:29.215Z,16.90
2019-05-26T07:14:59.979Z,16.80
2019-05-26T07:17:30.804Z,16.90
2019-05-26T07:20:01.512Z,17.00
2019-05-26T07:22:32.617Z,17.00
2019-05-26T07:25:03.395Z,17.00
2019-05-26T07:27:34.200Z,17.20
2019-05-26T07:30:05.657Z,17.40
2019-05-26T07:32:36.483Z,17.60
2019-05-26T07:35:07.725Z,17.80
2019-05-26T07:37:38.517Z,17.90
2019-05-26T07:40:09.384Z,18.10
2019-05-26T07:42:40.198Z,18.10
2019-05-26T07:45:11.795Z,18.10
2019-05-26T07:47:42.561Z,18.00
2019-05-26T07:50:13.338Z,18.10
2019-05-26T07:52:44.127Z,18.20
2019-05-26T07:55:15.042Z,18.20
2019-05-26T07:57:45.808Z,18.20
2019-05-26T08:00:16.747Z,18.30
2019-05-26T08:02:47.823Z,18.40
2019-05-26T08:05:18.597Z,18.40
2019-05-26T08:07:49.357Z,18.50
2019-05-26T08:10:20.129Z,18.50
2019-05-26T08:12:50.908Z,18.60
2019-05-26T08:15:21.643Z,18.50
2019-05-26T08:17:52.501Z,18.50
2019-05-26T08:20:23.247Z,18.40
2019-05-26T08:22:54.002Z,18.20
2019-05-26T08:25:24.699Z,18.20
2019-05-26T08:27:55.465Z,18.20
2019-05-26T08:30:26.293Z,18.30
2019-05-26T08:32:57.114Z,18.40
2019-05-26T08:35:27.856Z,18.20
2019-05-26T08:37:58.632Z,18.00
2019-05-26T08:40:29.434Z,17.90
2019-05-26T08:43:00.214Z,18.00
2019-05-26T08:45:30.994Z,18.00
2019-05-26T08:48:01.786Z,18.10
2019-05-26T08:50:34.369Z,18.40
2019-05-26T08:53:04.929Z,18.60
2019-05-26T08:55:35.666Z,18.70
2019-05-26T08:58:06.502Z,18.70
2019-05-26T09:00:37.300Z,18.90
2019-05-26T09:03:08.069Z,19.00
2019-05-26T09:05:38.932Z,19.20
2019-05-26T09:08:09.749Z,19.30
2019-05-26T09:10:40.606Z,19.30
2019-05-26T09:13:11.353Z,19.30
2019-05-26T09:15:42.977Z,19.20
2019-05-26T09:18:13.733Z,19.20
2019-05-26T09:20:44.535Z,19.30
2019-05-26T09:23:15.357Z,19.40
2019-05-26T09:25:46.739Z,19.50
2019-05-26T09:28:17.549Z,19.70
2019-05-26T09:30:48.289Z,19.90
2019-05-26T09:33:19.065Z,19.90
2019-05-26T09:35:49.882Z,19.90
2019-05-26T09:38:20.676Z,19.90
2019-05-26T09:40:51.442Z,19.80
2019-05-26T09:43:22.199Z,19.80
2019-05-26T09:45:52.965Z,19.80
2019-05-26T09:48:23.735Z,19.80
2019-05-26T09:50:54.602Z,19.70
2019-05-26T09:53:25.388Z,19.60
2019-05-26T09:55:56.221Z,19.60
2019-05-26T09:58:26.938Z,19.60
2019-05-26T10:00:57.735Z,19.50
2019-05-26T10:03:28.560Z,19.70
2019-05-26T10:05:59.697Z,19.80
2019-05-26T10:08:30.472Z,19.80
2019-05-26T10:11:01.269Z,19.90
2019-05-26T10:13:32.341Z,19.90
2019-05-26T10:16:03.193Z,19.70
2019-05-26T10:18:34.000Z,19.70
2019-05-26T10:21:04.785Z,19.80
2019-05-26T10:23:35.542Z,19.80
2019-05-26T10:26:06.339Z,19.80
2019-05-26T10:28:37.074Z,19.90
2019-05-26T10:31:07.919Z,19.90
2019-05-26T10:33:38.679Z,20.00
2019-05-26T10:36:09.518Z,19.90
2019-05-26T10:38:40.270Z,19.70
2019-05-26T10:41:11.095Z,19.50
2019-05-26T10:43:47.246Z,19.40
2019-05-26T10:46:14.250Z,19.60
2019-05-26T10:48:45.028Z,19.70
2019-05-26T10:51:15.883Z,19.50
2019-05-26T10:53:46.766Z,19.50
2019-05-26T10:56:17.585Z,19.60
2019-05-26T10:58:48.402Z,19.70
2019-05-26T11:01:19.199Z,19.60
2019-05-26T11:03:49.916Z,19.80
2019-05-26T11:06:20.653Z,20.10
2019-05-26T11:08:51.447Z,20.10
2019-05-26T11:11:22.260Z,20.00
2019-05-26T11:14:02.266Z,20.20
2019-05-26T11:16:25.447Z,20.30
2019-05-26T11:18:56.354Z,20.30
2019-05-26T11:21:27.151Z,20.40
2019-05-26T11:23:57.929Z,20.70
2019-05-26T11:26:28.753Z,20.70
2019-05-26T11:28:59.501Z,20.70
2019-05-26T11:31:30.291Z,20.80
2019-05-26T11:34:01.092Z,20.90
2019-05-26T11:36:31.908Z,21.00
2019-05-26T11:39:02.696Z,21.10
2019-05-26T11:41:33.512Z,21.20
2019-05-26T11:44:16.981Z,21.40
2019-05-26T11:46:36.716Z,21.90
2019-05-26T11:49:07.443Z,22.40
2019-05-26T11:51:38.198Z,22.60
2019-05-26T11:54:08.935Z,22.50
2019-05-26T11:56:39.684Z,22.10
2019-05-26T11:59:10.446Z,22.10
2019-05-26T12:01:41.155Z,22.10
2019-05-26T12:04:11.925Z,22.70
2019-05-26T12:06:42.947Z,23.70
2019-05-26T12:09:15.577Z,24.60
2019-05-26T12:11:46.316Z,24.10
2019-05-26T12:14:31.532Z,23.10
2019-05-26T12:16:49.767Z,22.80
2019-05-26T12:19:20.644Z,22.70
2019-05-26T12:21:51.325Z,22.60
2019-05-26T12:24:22.102Z,22.60
2019-05-26T12:26:52.829Z,22.70
2019-05-26T12:29:23.586Z,22.80
2019-05-26T12:31:54.364Z,22.80
2019-05-26T12:34:25.033Z,22.90
2019-05-26T12:36:55.807Z,23.00
2019-05-26T12:39:28.514Z,23.00
2019-05-26T12:41:59.259Z,22.90
2019-05-26T12:44:30.056Z,22.90
2019-05-26T12:47:00.751Z,22.70
2019-05-26T12:49:31.510Z,22.60
2019-05-26T12:52:02.236Z,22.40
2019-05-26T12:54:32.994Z,22.50
2019-05-26T12:57:03.755Z,22.80
2019-05-26T12:59:34.575Z,23.00
2019-05-26T13:02:05.540Z,23.00
2019-05-26T13:04:36.257Z,23.00
2019-05-26T13:07:07.024Z,22.80
2019-05-26T13:09:37.790Z,22.70
2019-05-26T13:12:08.569Z,22.60
2019-05-26T13:14:39.312Z,22.70
2019-05-26T13:17:10.052Z,22.90
2019-05-26T13:19:40.916Z,23.10
2019-05-26T13:22:11.764Z,23.50
2019-05-26T13:24:42.568Z,23.40
2019-05-26T13:27:13.275Z,23.30
2019-05-26T13:29:45.008Z,23.20
2019-05-26T13:32:19.732Z,23.30
2019-05-26T13:34:50.546Z,23.40
2019-05-26T13:37:21.323Z,23.50
2019-05-26T13:39:52.938Z,23.60
2019-05-26T13:42:23.836Z,23.80
2019-05-26T13:44:54.603Z,24.10
2019-05-26T13:47:26.588Z,24.50
2019-05-26T13:49:57.427Z,24.70
2019-05-26T13:52:28.291Z,24.60
2019-05-26T13:54:59.167Z,24.50
2019-05-26T13:57:29.962Z,24.50
2019-05-26T14:00:00.740Z,24.80
2019-05-26T14:02:31.481Z,24.70
2019-05-26T14:05:02.237Z,24.70
2019-05-26T14:07:33.150Z,24.70
2019-05-26T14:10:04.789Z,25.10
2019-05-26T14:12:35.684Z,25.30
2019-05-26T14:15:07.064Z,24.90
2019-05-26T14:17:40.197Z,24.60
2019-05-26T14:20:12.662Z,23.60
2019-05-26T14:22:43.480Z,23.20
2019-05-26T14:25:15.722Z,24.20
2019-05-26T14:27:46.720Z,25.50
2019-05-26T14:30:17.480Z,25.90
2019-05-26T14:32:48.296Z,25.90
2019-05-26T14:35:19.064Z,25.50
2019-05-26T14:37:50.002Z,24.60
2019-05-26T14:40:20.848Z,23.70
2019-05-26T14:42:51.762Z,23.00
2019-05-26T14:45:22.619Z,23.20
2019-05-26T14:47:53.516Z,24.30
2019-05-26T14:50:24.523Z,25.20
2019-05-26T14:52:55.559Z,25.60
2019-05-26T14:55:26.351Z,25.70
2019-05-26T14:57:57.127Z,24.90
2019-05-26T15:00:28.198Z,23.90
2019-05-26T15:02:59.074Z,23.40
2019-05-26T15:05:29.826Z,23.40
2019-05-26T15:08:00.597Z,23.50
2019-05-26T15:10:31.355Z,23.50
2019-05-26T15:13:02.180Z,23.30
2019-05-26T15:15:34.965Z,23.00
2019-05-26T15:18:05.345Z,22.40
2019-05-26T15:20:36.062Z,21.90
2019-05-26T15:23:06.778Z,21.70
2019-05-26T15:25:37.553Z,21.90
2019-05-26T15:28:08.300Z,21.90
2019-05-26T15:30:39.067Z,21.90
2019-05-26T15:33:09.903Z,22.30
2019-05-26T15:35:40.692Z,22.20
2019-05-26T15:38:11.505Z,21.90
2019-05-26T15:40:42.322Z,21.60
2019-05-26T15:43:13.060Z,21.40
2019-05-26T15:45:43.855Z,21.40
2019-05-26T15:48:14.643Z,21.60
2019-05-26T15:50:45.388Z,21.70
2019-05-26T15:53:16.126Z,21.80
2019-05-26T15:55:46.902Z,21.60
2019-05-26T15:58:17.631Z,21.20
2019-05-26T16:00:48.504Z,20.90
2019-05-26T16:03:19.292Z,20.80
2019-05-26T16:05:50.088Z,20.90
2019-05-26T16:08:20.884Z,21.10
2019-05-26T16:10:51.693Z,21.20
2019-05-26T16:13:22.426Z,21.20
2019-05-26T16:15:53.394Z,21.10
2019-05-26T16:18:24.129Z,21.00
2019-05-26T16:21:03.134Z,21.00
2019-05-26T16:23:27.323Z,20.90
2019-05-26T16:25:58.129Z,20.90
2019-05-26T16:28:28.907Z,20.80
2019-05-26T16:30:59.713Z,20.60
2019-05-26T16:33:30.582Z,20.50
2019-05-26T16:36:01.349Z,20.50
2019-05-26T16:38:32.139Z,20.40
2019-05-26T16:41:02.939Z,20.20
2019-05-26T16:43:33.712Z,20.30
2019-05-26T16:46:04.587Z,20.30
2019-05-26T16:48:35.368Z,20.20
2019-05-26T16:51:06.217Z,20.00
2019-05-26T16:53:36.966Z,19.80
2019-05-26T16:56:07.731Z,19.80
2019-05-26T16:58:38.505Z,19.80
2019-05-26T17:01:09.385Z,19.70
2019-05-26T17:03:40.090Z,19.60
2019-05-26T17:06:10.884Z,19.50
2019-05-26T17:08:41.641Z,19.40
2019-05-26T17:11:12.437Z,19.30
2019-05-26T17:13:43.247Z,19.20
2019-05-26T17:16:14.080Z,19.10
2019-05-26T17:18:44.898Z,19.00
2019-05-26T17:21:15.686Z,18.80
2019-05-26T17:23:46.460Z,18.80
2019-05-26T17:26:17.229Z,18.70
2019-05-26T17:28:48.014Z,18.60
2019-05-26T17:31:18.801Z,18.50
2019-05-26T17:33:49.599Z,18.40
2019-05-26T17:36:20.472Z,18.40
2019-05-26T17:38:51.233Z,18.30
2019-05-26T17:41:22.017Z,18.30
2019-05-26T17:43:52.765Z,18.30
2019-05-26T17:46:23.559Z,18.30
2019-05-26T17:48:54.304Z,18.20
2019-05-26T17:51:25.103Z,18.20
2019-05-26T17:54:14.924Z,18.20
2019-05-26T17:56:45.718Z,18.10
2019-05-26T17:59:16.516Z,18.10
2019-05-26T18:01:47.283Z,18.00
2019-05-26T18:04:18.019Z,17.90
2019-05-26T18:06:48.856Z,17.90
2019-05-26T18:09:19.632Z,17.90
2019-05-26T18:11:50.449Z,17.90
2019-05-26T18:14:21.185Z,17.80
2019-05-26T18:16:51.963Z,17.80
2019-05-26T18:19:22.740Z,17.70
2019-05-26T18:21:53.593Z,17.70
2019-05-26T18:24:24.321Z,17.70
2019-05-26T18:26:55.107Z,17.70
2019-05-26T18:29:25.888Z,17.70
2019-05-26T18:31:56.873Z,17.70
2019-05-26T18:34:27.627Z,17.60
2019-05-26T18:36:58.393Z,17.60
2019-05-26T18:39:29.179Z,17.60
2019-05-26T18:42:00.016Z,17.50
2019-05-26T18:44:30.874Z,17.50
2019-05-26T18:47:01.630Z,17.50
2019-05-26T18:49:32.392Z,17.50
2019-05-26T18:52:03.205Z,17.40
2019-05-26T18:54:33.986Z,17.40
2019-05-26T18:57:04.744Z,17.30
2019-05-26T18:59:35.571Z,17.30
2019-05-26T19:02:06.318Z,17.30
2019-05-26T19:04:37.155Z,17.20
2019-05-26T19:07:07.937Z,17.20
2019-05-26T19:09:38.697Z,17.20
2019-05-26T19:12:09.443Z,17.10
2019-05-26T19:14:40.270Z,17.00
2019-05-26T19:17:11.026Z,17.00
2019-05-26T19:19:41.815Z,17.00
2019-05-26T19:22:12.589Z,17.00
2019-05-26T19:24:43.386Z,17.00
2019-05-26T19:27:14.112Z,16.90
2019-05-26T19:29:44.930Z,16.90
2019-05-26T19:32:15.715Z,16.80
2019-05-26T19:34:46.531Z,16.80
2019-05-26T19:37:17.366Z,16.80
2019-05-26T19:39:48.146Z,16.80
2019-05-26T19:42:19.022Z,16.80
2019-05-26T19:44:49.817Z,16.80
2019-05-26T19:47:20.614Z,16.80
2019-05-26T19:49:51.370Z,16.70
2019-05-26T19:52:22.181Z,16.70
2019-05-26T19:54:53.014Z,16.70
2019-05-26T19:57:23.739Z,16.70
2019-05-26T19:59:54.556Z,16.60
2019-05-26T20:02:25.302Z,16.70
2019-05-26T20:04:56.109Z,16.60
2019-05-26T20:07:26.906Z,16.70
2019-05-26T20:09:57.651Z,16.60
2019-05-26T20:12:28.418Z,16.60
2019-05-26T20:14:59.255Z,16.60
2019-05-26T20:17:30.002Z,16.60
2019-05-26T20:20:00.819Z,16.60
2019-05-26T20:22:34.005Z,16.50
2019-05-26T20:25:03.903Z,16.50
2019-05-26T20:27:34.688Z,16.50
2019-05-26T20:30:05.948Z,16.50
2019-05-26T20:32:36.699Z,16.40
2019-05-26T20:35:07.661Z,16.40
2019-05-26T20:37:38.383Z,16.50
2019-05-26T20:40:09.714Z,16.40
2019-05-26T20:42:40.520Z,16.40
2019-05-26T20:45:11.723Z,16.30
2019-05-26T20:47:42.510Z,16.40
2019-05-26T20:50:28.098Z,16.30
2019-05-26T20:52:47.039Z,16.40
2019-05-26T20:55:18.250Z,16.40
2019-05-26T20:57:49.284Z,16.40
2019-05-26T21:00:20.165Z,16.40
2019-05-26T21:02:50.908Z,16.30
2019-05-26T21:05:21.658Z,16.30
2019-05-26T21:07:52.551Z,16.30
2019-05-26T21:10:23.340Z,16.20
2019-05-26T21:12:54.085Z,16.20
2019-05-26T21:15:24.811Z,16.20
2019-05-26T21:17:55.618Z,16.20
2019-05-26T21:20:26.345Z,16.20
2019-05-26T21:22:57.160Z,16.10
2019-05-26T21:25:27.969Z,16.10
2019-05-26T21:27:58.813Z,16.10
2019-05-26T21:30:29.550Z,16.10
2019-05-26T21:33:00.336Z,16.10
2019-05-26T21:35:31.114Z,16.10
2019-05-26T21:38:01.891Z,16.10
2019-05-26T21:40:32.645Z,16.10
2019-05-26T21:43:03.435Z,16.10
2019-05-26T21:45:34.219Z,16.10
2019-05-26T21:48:05.216Z,16.10
2019-05-26T21:50:35.973Z,16.10
2019-05-26T21:53:06.768Z,16.00
2019-05-26T21:55:37.464Z,16.00
2019-05-26T21:58:08.252Z,16.00
2019-05-26T22:00:45.689Z,16.00
2019-05-26T22:03:16.446Z,16.00
2019-05-26T22:05:47.280Z,15.90
2019-05-26T22:08:18.025Z,15.90
2019-05-26T22:10:48.725Z,15.90
2019-05-26T22:13:19.541Z,15.90
2019-05-26T22:15:50.299Z,15.90
2019-05-26T22:18:21.034Z,15.90
2019-05-26T22:20:51.720Z,15.90
2019-05-26T22:23:22.448Z,15.90
2019-05-26T22:25:53.213Z,15.80
2019-05-26T22:28:23.970Z,15.80
2019-05-26T22:30:54.747Z,15.80
2019-05-26T22:33:25.530Z,15.80
2019-05-26T22:35:56.289Z,15.80
2019-05-26T22:38:27.220Z,15.80
2019-05-26T22:40:57.934Z,15.80
2019-05-26T22:43:28.693Z,15.70
2019-05-26T22:45:59.469Z,15.70
2019-05-26T22:48:30.224Z,15.70
2019-05-26T22:51:01.010Z,15.70
2019-05-26T22:53:31.745Z,15.70
2019-05-26T22:56:02.483Z,15.70
2019-05-26T22:58:33.129Z,15.60
2019-05-26T23:01:03.929Z,15.70
2019-05-26T23:03:34.651Z,15.60
2019-05-26T23:06:05.642Z,15.60
2019-05-26T23:08:36.583Z,15.50
2019-05-26T23:11:07.342Z,15.50
2019-05-26T23:13:38.109Z,15.50
2019-05-26T23:16:08.914Z,15.40
2019-05-26T23:18:39.667Z,15.40
2019-05-26T23:21:10.407Z,15.40
2019-05-26T23:23:41.185Z,15.40
2019-05-26T23:26:11.970Z,15.40
2019-05-26T23:28:42.738Z,15.30
2019-05-26T23:31:13.554Z,15.40
2019-05-26T23:33:44.350Z,15.30
2019-05-26T23:36:15.207Z,15.30
2019-05-26T23:38:46.113Z,15.30
2019-05-26T23:41:16.891Z,15.30
2019-05-26T23:43:47.687Z,15.30
2019-05-26T23:46:18.494Z,15.20
2019-05-26T23:48:49.281Z,15.20
2019-05-26T23:51:20.090Z,15.10
2019-05-26T23:53:50.897Z,15.10
2019-05-26T23:56:21.639Z,15.10
2019-05-26T23:58:52.409Z,15.00
